Forum Crazy Orc - Centre de statistiques

Statistiques générales

Total des membres:
1 031
Total des messages:
97 109
Total des sujets:
4 120
Total des catégories:
4
Membres en ligne:
27
Connexions simultanées:
808 - 21 janvier 2020 à 20:55:59
En ligne aujourd'hui:
45
Total des pages vues:
34 877 272
Moyenne des inscriptions par jour:
0,25
Moyenne des messages par jour:
24,04
Moyenne des sujets par jour:
1,08
Total des sections:
40
Dernier membre:
Hiboufurtif
Moyenne d'utilisateurs connectés par jour:
49,32
Ratio hommes/femmes:
7.1:1
Pages vues en moyenne par jour:
5 949,72

Top lanceurs de sujets

nunch
600
Morithil
346
ManuDevil
290
GroumpH
246
Scratchy
132
MAO
110
LeDupontesque
105
jules
99
snake
92
CCCP
85

Temps de connexion cumulé

Mandy
133j 19h 59m
GroumpH
112j 9h 9m
CCCP
87j 6h 43m
Nukeflow
73j 8h 19m
ManuDevil
67j 16h 19m
Felipe
61j 12h 19m
dao
56j 17h 58m
nunch
49j 1h 9m
Rh
42j 23h 32m
Patate
42j 7h 19m

Historique du forum (basé sur l'heure interne du forum)

Résumé annuel Nouveaux sujets Nouveaux messages Nouveaux membres Connexions simultanées Pages vues
* 2023 40 210 26 165 844 747
Mars 2023 8 45 2 155 270 255
Février 2023 13 62 5 165 274 947
Janvier 2023 19 103 19 148 299 545
* 2022 183 1 154 96 261 3 778 792
Décembre 2022 9 37 1 161 306 381
2022-12-01 0 1 0 124 12 558
2022-12-02 0 3 0 110 10 626
2022-12-03 0 1 0 74 8 911
2022-12-04 0 1 0 91 9 844
2022-12-05 0 1 0 90 12 386
2022-12-06 0 0 0 109 9 014
2022-12-07 0 1 0 149 9 179
2022-12-08 0 1 0 161 15 170
2022-12-09 0 1 0 125 14 847
2022-12-10 0 3 0 117 14 570
2022-12-11 0 0 0 128 13 579
2022-12-12 6 7 0 134 9 225
2022-12-13 0 0 0 119 7 993
2022-12-14 0 8 0 132 7 472
2022-12-15 0 1 0 69 4 549
2022-12-16 0 1 0 73 4 937
2022-12-17 0 2 0 77 5 546
2022-12-18 0 0 0 69 5 377
2022-12-19 0 0 0 85 5 133
2022-12-20 0 0 0 71 4 025
2022-12-21 0 0 0 100 8 616
2022-12-22 0 0 0 93 7 791
2022-12-23 1 1 1 92 10 738
2022-12-24 0 0 0 80 23 907
2022-12-25 0 0 0 79 8 747
2022-12-26 0 0 0 73 8 646
2022-12-27 0 1 0 66 11 725
2022-12-28 0 0 0 63 9 113
2022-12-29 0 0 0 85 10 820
2022-12-30 0 0 0 76 11 189
2022-12-31 2 3 0 80 10 148
Novembre 2022 16 103 6 261 350 274
Octobre 2022 11 120 17 208 290 108
Septembre 2022 17 115 6 258 357 415
Août 2022 15 108 9 147 318 817
Juillet 2022 13 69 4 208 308 045
Juin 2022 14 76 4 62 333 112
Mai 2022 16 118 8 91 339 244
Avril 2022 18 133 12 61 254 691
Mars 2022 15 123 8 65 281 935
Février 2022 17 84 9 58 314 588
Janvier 2022 22 68 12 70 324 182
* 2021 129 756 53 338 4 376 522
Décembre 2021 8 37 0 129 661 064
2021-12-01 0 1 0 86 10 724
2021-12-02 0 6 0 91 7 815
2021-12-03 0 0 0 93 7 911
2021-12-04 0 5 0 92 10 027
2021-12-05 2 2 0 86 10 097
2021-12-06 0 0 0 129 7 479
2021-12-07 0 0 0 101 8 162
2021-12-08 0 2 0 42 6 778
2021-12-09 0 0 0 40 7 532
2021-12-10 4 6 0 55 7 151
2021-12-11 0 1 0 42 9 757
2021-12-12 0 0 0 53 12 585
2021-12-13 0 2 0 48 10 751
2021-12-14 0 0 0 40 13 058
2021-12-15 0 1 0 35 11 053
2021-12-16 0 3 0 50 9 613
2021-12-17 0 1 0 47 11 104
2021-12-18 0 0 0 42 9 597
2021-12-19 0 2 0 48 9 257
2021-12-20 2 2 0 45 10 553
2021-12-21 0 0 0 47 10 988
2021-12-22 0 0 0 44 14 554
2021-12-23 0 1 0 47 43 880
2021-12-24 0 1 0 46 49 317
2021-12-25 0 0 0 47 49 735
2021-12-26 0 0 0 44 48 100
2021-12-27 0 1 0 41 54 117
2021-12-28 0 0 0 37 47 893
2021-12-29 0 0 0 38 54 768
2021-12-30 0 0 0 38 48 213
2021-12-31 0 0 0 38 48 495
Novembre 2021 13 99 4 153 262 314
Octobre 2021 20 208 15 159 298 103
Septembre 2021 24 171 10 280 285 455
Août 2021 11 33 7 73 231 609
Juillet 2021 6 8 2 81 305 173
Juin 2021 17 31 2 135 311 168
Mai 2021 3 31 4 268 597 777
Avril 2021 10 51 6 287 308 355
Mars 2021 7 24 1 308 444 900
Février 2021 5 29 2 338 223 056
Janvier 2021 5 34 0 322 447 548
* 2020 206 1 716 105 808 4 713 463
Décembre 2020 6 38 2 320 310 487
2020-12-01 1 1 0 121 10 809
2020-12-02 0 3 0 116 10 099
2020-12-03 0 2 0 114 11 876
2020-12-04 0 0 0 94 10 791
2020-12-05 0 3 0 82 9 574
2020-12-06 1 10 0 78 10 653
2020-12-07 0 4 0 68 10 998
2020-12-08 0 0 0 66 32 260
2020-12-09 0 1 0 67 7 435
2020-12-10 0 1 1 60 7 610
2020-12-11 0 0 0 60 7 643
2020-12-12 0 1 0 63 7 412
2020-12-13 0 1 0 50 7 185
2020-12-14 1 2 0 46 5 821
2020-12-15 0 1 0 44 8 427
2020-12-16 0 0 0 320 13 083
2020-12-17 0 0 0 74 9 703
2020-12-18 0 0 0 71 8 569
2020-12-19 0 0 0 63 7 390
2020-12-20 0 3 0 65 6 819
2020-12-21 1 1 0 59 6 108
2020-12-22 0 0 0 70 10 438
2020-12-23 0 1 0 73 9 331
2020-12-24 0 0 0 72 10 558
2020-12-25 0 0 0 77 9 826
2020-12-26 0 0 0 72 10 399
2020-12-27 1 1 1 88 10 008
2020-12-28 0 1 0 88 8 712
2020-12-29 1 1 0 105 10 795
2020-12-30 0 0 0 79 10 368
2020-12-31 0 0 0 69 9 787
Novembre 2020 12 97 3 352 464 426
Octobre 2020 21 169 7 346 497 422
Septembre 2020 30 356 15 133 325 183
Août 2020 16 147 7 163 471 897
Juillet 2020 16 77 2 100 345 760
Juin 2020 17 60 5 127 452 817
Mai 2020 7 22 3 295 321 652
Avril 2020 10 47 1 189 300 030
Mars 2020 24 253 3 199 467 854
Février 2020 18 171 9 323 281 798
Janvier 2020 29 279 48 808 474 137
* 2019 246 3 411 313 446 3 308 531
Décembre 2019 18 159 26 446 351 248
2019-12-01 0 4 1 277 11 373
2019-12-02 1 14 1 135 11 534
2019-12-03 0 5 1 110 9 010
2019-12-04 0 4 2 106 7 741
2019-12-05 0 6 0 330 8 461
2019-12-06 3 13 1 335 12 098
2019-12-07 0 4 0 215 16 251
2019-12-08 0 0 2 114 35 635
2019-12-09 4 16 3 170 9 809
2019-12-10 1 4 0 112 11 124
2019-12-11 0 5 1 299 9 463
2019-12-12 0 3 1 306 9 544
2019-12-13 0 2 0 366 8 347
2019-12-14 0 3 0 446 11 186
2019-12-15 1 13 0 367 10 258
2019-12-16 2 14 0 109 9 322
2019-12-17 0 13 0 127 9 034
2019-12-18 1 5 0 233 9 507
2019-12-19 1 2 4 112 10 126
2019-12-20 0 0 0 104 9 567
2019-12-21 0 6 1 116 10 009
2019-12-22 0 0 1 105 10 019
2019-12-23 0 0 0 125 10 592
2019-12-24 0 2 0 127 11 029
2019-12-25 0 0 0 112 10 531
2019-12-26 0 1 0 138 11 502
2019-12-27 0 3 0 113 14 168
2019-12-28 0 0 4 115 20 305
2019-12-29 4 5 1 119 11 114
2019-12-30 0 7 1 127 5 225
2019-12-31 0 5 1 125 7 364
Novembre 2019 16 245 33 325 524 135
Octobre 2019 24 272 59 121 189 762
Septembre 2019 25 386 54 141 376 708
Août 2019 22 257 31 122 225 760
Juillet 2019 24 281 62 149 190 301
Juin 2019 11 171 3 112 246 519
Mai 2019 23 311 10 167 218 891
Avril 2019 21 294 9 174 311 459
2019-04-01 1 11 0 174 7 945
2019-04-02 3 24 0 122 7 494
2019-04-03 1 14 0 142 9 858
2019-04-04 0 8 0 139 10 089
2019-04-05 0 2 0 133 12 161
2019-04-06 1 12 1 133 7 608
2019-04-07 0 6 0 120 7 430
2019-04-08 1 14 1 135 8 563
2019-04-09 0 13 0 137 16 179
2019-04-10 2 17 0 144 19 838
2019-04-11 1 14 1 138 21 613
2019-04-12 0 14 0 119 19 438
2019-04-13 1 11 3 51 7 170
2019-04-14 0 4 0 64 8 623
2019-04-15 0 0 0 61 10 243
2019-04-16 0 1 0 55 8 411
2019-04-17 0 2 0 72 6 278
2019-04-18 1 9 0 62 9 286
2019-04-19 2 8 0 70 7 179
2019-04-20 0 5 0 129 4 258
2019-04-21 0 11 1 152 3 979
2019-04-22 2 7 0 170 5 151
2019-04-23 0 9 0 59 8 482
2019-04-24 0 17 0 78 9 241
2019-04-25 1 13 2 57 13 826
2019-04-26 0 6 0 58 15 753
2019-04-27 0 2 0 47 12 881
2019-04-28 3 17 0 58 10 108
2019-04-29 1 20 0 57 11 176
2019-04-30 0 3 0 58 11 198
Mars 2019 22 372 16 142 344 146
Février 2019 18 288 4 110 142 132
Janvier 2019 22 375 6 113 187 470
* 2018 338 6 176 81 641 2 624 946
Décembre 2018 43 306 8 253 421 582
2018-12-01 1 13 0 108 10 961
2018-12-02 0 3 1 109 14 766
2018-12-03 0 17 0 108 18 344
2018-12-04 0 4 0 111 20 929
2018-12-05 1 19 1 111 11 950
2018-12-06 8 18 0 111 14 660
2018-12-07 13 27 0 107 14 549
2018-12-08 2 12 0 100 8 121
2018-12-09 4 26 0 97 8 912
2018-12-10 0 12 0 94 9 173
2018-12-11 1 7 0 104 7 972
2018-12-12 0 13 0 253 12 240
2018-12-13 2 10 0 245 6 172
2018-12-14 0 17 1 134 6 149
2018-12-15 0 6 0 160 5 846
2018-12-16 2 14 1 106 5 984
2018-12-17 2 10 0 104 5 353
2018-12-18 0 9 0 98 5 314
2018-12-19 0 5 0 100 3 727
2018-12-20 0 3 0 96 2 596
2018-12-21 0 5 0 23 4 142
2018-12-22 0 2 0 24 6 219
2018-12-23 0 5 0 21 8 400
2018-12-24 0 2 0 18 10 302
2018-12-25 1 2 0 23 11 913
2018-12-26 0 7 0 22 8 611
2018-12-27 1 1 1 24 17 549
2018-12-28 0 2 2 24 151 295
2018-12-29 5 13 0 49 2 922
2018-12-30 0 17 1 49 3 800
2018-12-31 0 5 0 46 2 711
Novembre 2018 26 467 9 641 383 363
Octobre 2018 34 527 6 321 248 725
Septembre 2018 34 641 10 127 216 306
Août 2018 32 583 16 101 188 648
2018-08-01 0 26 0 98 6 784
2018-08-02 0 29 0 101 6 795
2018-08-03 0 11 0 93 6 370
2018-08-04 5 19 1 90 6 653
2018-08-05 4 23 0 93 6 519
2018-08-06 0 24 0 95 6 142
2018-08-07 2 23 1 94 5 013
2018-08-08 0 18 0 93 6 325
2018-08-09 1 9 0 98 6 608
2018-08-10 1 13 1 101 6 723
2018-08-11 0 17 1 94 6 721
2018-08-12 1 9 2 92 6 116
2018-08-13 2 19 0 93 6 356
2018-08-14 0 5 0 90 6 043
2018-08-15 1 16 0 93 6 200
2018-08-16 1 34 0 89 6 859
2018-08-17 0 25 0 86 5 971
2018-08-18 0 27 1 90 6 101
2018-08-19 4 24 0 94 6 672
2018-08-20 0 10 1 83 6 150
2018-08-21 1 9 2 93 5 405
2018-08-22 1 24 0 90 4 343
2018-08-23 3 23 3 89 5 993
2018-08-24 1 54 3 92 7 389
2018-08-25 0 13 0 84 5 312
2018-08-26 0 3 0 83 5 702
2018-08-27 0 9 0 82 5 196
2018-08-28 2 10 0 84 5 401
2018-08-29 1 8 0 82 4 297
2018-08-30 1 19 0 27 4 663
2018-08-31 0 30 0 22 7 826
Juillet 2018 21 386 3 104 182 475
Juin 2018 31 442 3 110 213 303
Mai 2018 21 422 4 107 174 393
Avril 2018 25 564 5 104 159 849
2018-04-01 5 38 1 78 19 803
2018-04-02 1 37 0 81 4 900
2018-04-03 0 28 0 80 4 480
2018-04-04 1 26 0 88 4 206
2018-04-05 3 35 0 84 4 988
2018-04-06 0 18 0 82 4 984
2018-04-07 0 8 0 86 4 144
2018-04-08 2 17 0 90 4 595
2018-04-09 0 32 0 83 4 451
2018-04-10 0 21 0 84 4 551
2018-04-11 0 12 0 93 4 320
2018-04-12 0 21 0 104 5 608
2018-04-13 1 10 0 85 4 997
2018-04-14 2 39 1 91 4 749
2018-04-15 2 21 0 92 5 393
2018-04-16 1 13 0 92 5 327
2018-04-17 0 9 0 88 4 518
2018-04-18 0 12 1 89 4 185
2018-04-19 0 7 0 16 1 456
2018-04-20 0 6 0 82 2 948
2018-04-21 0 6 0 81 4 974
2018-04-22 0 3 0 83 4 887
2018-04-23 2 9 0 85 5 259
2018-04-24 3 20 0 82 4 998
2018-04-25 0 16 1 81 5 180
2018-04-26 0 11 0 78 4 558
2018-04-27 1 23 1 86 10 368
2018-04-28 0 26 0 88 5 449
2018-04-29 1 20 0 86 4 042
2018-04-30 0 20 0 99 5 531
Mars 2018 20 634 4 96 152 933
Février 2018 25 631 7 93 121 912
Janvier 2018 26 573 6 94 161 457
* 2017 346 6 100 56 180 1 675 168
Décembre 2017 37 499 6 91 136 063
2017-12-01 1 27 0 85 5 032
2017-12-02 1 21 0 81 4 462
2017-12-03 0 17 0 91 4 582
2017-12-04 0 10 0 90 4 385
2017-12-05 0 13 0 80 3 786
2017-12-06 0 15 0 79 3 217
2017-12-07 1 13 1 73 4 202
2017-12-08 0 5 0 71 4 487
2017-12-09 1 1 1 75 4 265
2017-12-10 2 15 1 80 5 206
2017-12-11 2 21 0 73 4 933
2017-12-12 3 44 0 71 5 142
2017-12-13 2 19 0 75 4 201
2017-12-14 0 16 0 78 4 162
2017-12-15 3 15 1 73 4 050
2017-12-16 1 23 0 73 4 372
2017-12-17 6 30 0 78 4 718
2017-12-18 2 22 0 73 4 383
2017-12-19 1 12 0 75 3 880
2017-12-20 1 18 0 75 4 061
2017-12-21 0 6 0 80 4 040
2017-12-22 0 8 0 78 5 188
2017-12-23 1 10 0 72 4 724
2017-12-24 1 4 0 75 4 594
2017-12-25 1 9 0 75 4 387
2017-12-26 0 9 2 84 4 348
2017-12-27 1 26 0 75 4 354
2017-12-28 4 31 0 89 4 670
2017-12-29 0 19 0 82 4 453
2017-12-30 1 13 0 79 3 800
2017-12-31 1 7 0 75 3 979
Novembre 2017 37 675 6 93 169 670
Octobre 2017 15 426 2 93 151 449
Septembre 2017 28 548 5 94 135 543
Août 2017 29 384 6 99 148 097
2017-08-01 0 9 0 68 3 543
2017-08-02 0 12 1 66 2 932
2017-08-03 0 7 0 64 3 100
2017-08-04 1 8 0 83 3 375
2017-08-05 1 8 0 81 4 004
2017-08-06 2 6 1 80 3 731
2017-08-07 6 14 1 85 3 850
2017-08-08 2 3 0 76 4 998
2017-08-09 0 13 1 72 4 403
2017-08-10 3 6 0 75 3 696
2017-08-11 0 6 0 74 2 479
2017-08-12 0 7 0 81 4 043
2017-08-13 0 9 0 73 4 128
2017-08-14 0 14 0 73 3 594
2017-08-15 2 7 0 71 3 835
2017-08-16 1 11 0 70 3 779
2017-08-17 0 13 0 82 3 941
2017-08-18 0 7 0 82 3 689
2017-08-19 0 8 0 19 1 560
2017-08-20 0 11 0 85 2 353
2017-08-21 0 15 0 99 4 536
2017-08-22 2 37 0 91 4 987
2017-08-23 0 13 0 81 4 153
2017-08-24 5 24 0 87 5 297
2017-08-25 1 31 0 79 4 356
2017-08-26 0 12 0 85 4 846
2017-08-27 1 23 0 83 6 285
2017-08-28 0 21 0 98 6 070
2017-08-29 0 5 0 85 5 964
2017-08-30 1 14 1 79 25 924
2017-08-31 1 10 1 82 4 646
Juillet 2017 25 490 5 87 176 472
Juin 2017 33 603 4 89 156 248
Mai 2017 26 470 2 99 181 189
Avril 2017 31 490 5 180 139 896
2017-04-01 0 14 0 48 4 179
2017-04-02 1 21 0 41 11 405
2017-04-03 2 14 0 44 1 551
2017-04-04 0 6 0 22 930
2017-04-05 2 13 0 19 1 221
2017-04-06 0 20 0 20 4 204
2017-04-07 0 9 0 19 2 345
2017-04-08 1 18 0 22 2 529
2017-04-09 1 5 1 17 1 209
2017-04-10 3 36 1 44 2 839
2017-04-11 2 22 0 74 4 607
2017-04-12 2 19 0 62 5 808
2017-04-13 0 31 0 64 3 713
2017-04-14 2 35 0 59 3 257
2017-04-15 0 8 0 68 3 136
2017-04-16 0 12 0 63 3 438
2017-04-17 2 22 0 58 3 762
2017-04-18 2 30 0 81 5 391
2017-04-19 1 23 1 122 6 928
2017-04-20 1 8 0 68 5 309
2017-04-21 0 14 0 51 3 988
2017-04-22 0 2 0 47 4 082
2017-04-23 2 18 0 51 6 943
2017-04-24 1 15 1 51 4 833
2017-04-25 2 26 1 180 6 646
2017-04-26 3 19 0 83 8 145
2017-04-27 0 2 0 68 8 631
2017-04-28 0 2 0 61 4 684
2017-04-29 1 18 0 58 6 307
2017-04-30 0 8 0 54 7 876
Mars 2017 27 432 3 119 90 981
Février 2017 31 587 7 87 74 924
Janvier 2017 27 496 5 80 114 636
* 2016 389 7 721 79 245 2 075 605
Décembre 2016 34 533 2 170 118 206
2016-12-01 0 1 0 74 3 445
2016-12-02 0 8 0 55 3 761
2016-12-03 0 7 0 58 2 184
2016-12-04 9 30 0 53 2 958
2016-12-05 0 35 0 65 4 219
2016-12-06 2 23 0 64 3 665
2016-12-07 1 23 0 60 4 594
2016-12-08 2 17 0 125 6 276
2016-12-09 1 21 0 76 3 458
2016-12-10 2 15 2 61 3 661
2016-12-11 1 37 0 68 3 369
2016-12-12 3 11 0 63 2 902
2016-12-13 0 10 0 59 3 821
2016-12-14 1 18 0 74 4 666
2016-12-15 0 18 0 72 3 378
2016-12-16 1 19 0 35 2 487
2016-12-17 0 8 0 73 2 573
2016-12-18 0 11 0 81 15 525
2016-12-19 1 15 0 61 3 437
2016-12-20 0 9 0 56 3 667
2016-12-21 0 15 0 54 2 974
2016-12-22 0 25 0 56 2 993
2016-12-23 0 13 0 56 3 867
2016-12-24 0 10 0 55 2 712
2016-12-25 1 11 0 170 3 278
2016-12-26 3 10 0 72 3 609
2016-12-27 3 23 0 59 2 265
2016-12-28 1 21 0 51 3 618
2016-12-29 0 34 0 55 2 903
2016-12-30 2 13 0 58 3 351
2016-12-31 0 22 0 54 2 590
Novembre 2016 34 586 6 245 122 991
Octobre 2016 43 726 7 191 160 217
Septembre 2016 26 657 9 85 157 449
Août 2016 31 721 9 114 169 873
2016-08-01 0 34 0 56 15 771
2016-08-02 1 24 0 49 4 965
2016-08-03 0 15 0 54 4 374
2016-08-04 0 39 0 46 4 547
2016-08-05 1 46 1 42 4 740
2016-08-06 0 18 0 49 4 109
2016-08-07 9 43 2 54 3 599
2016-08-08 1 25 0 48 3 592
2016-08-09 0 15 0 49 3 725
2016-08-10 0 19 0 45 4 264
2016-08-11 1 9 0 44 3 140
2016-08-12 1 24 0 45 4 209
2016-08-13 0 13 2 48 4 850
2016-08-14 2 31 2 46 4 216
2016-08-15 0 27 0 25 3 114
2016-08-16 1 23 0 30 2 754
2016-08-17 1 30 0 30 3 105
2016-08-18 0 16 0 60 3 872
2016-08-19 0 27 0 58 4 655
2016-08-20 1 23 0 72 4 528
2016-08-21 0 6 0 64 4 231
2016-08-22 0 19 0 114 6 004
2016-08-23 1 25 0 103 5 871
2016-08-24 1 24 0 59 3 064
2016-08-25 0 7 0 90 16 785
2016-08-26 1 16 0 69 17 998
2016-08-27 0 12 0 72 4 035
2016-08-28 7 42 1 73 3 576
2016-08-29 0 27 0 77 5 294
2016-08-30 1 27 1 71 5 843
2016-08-31 1 15 0 69 5 043
Juillet 2016 19 513 3 58 166 690
Juin 2016 30 565 5 53 211 715
Mai 2016 40 1 116 8 94 166 514
Avril 2016 27 529 7 65 155 208
2016-04-01 3 38 2 30 3 618
2016-04-02 0 23 1 23 3 917
2016-04-03 3 45 1 65 6 292
2016-04-04 3 45 0 31 4 738
2016-04-05 0 6 0 26 3 350
2016-04-06 0 15 0 22 4 462
2016-04-07 1 13 1 21 3 485
2016-04-08 0 9 0 23 3 328
2016-04-09 2 17 0 24 3 870
2016-04-10 0 13 0 25 4 267
2016-04-11 0 19 0 55 6 024
2016-04-12 1 16 0 59 14 106
2016-04-13 4 14 0 59 11 237
2016-04-14 0 14 0 52 5 426
2016-04-15 1 14 0 20 3 457
2016-04-16 0 7 0 50 5 198
2016-04-17 0 2 0 49 5 204
2016-04-18 1 17 1 20 4 013
2016-04-19 0 11 1 20 3 807
2016-04-20 1 17 0 23 3 488
2016-04-21 0 16 0 25 3 419
2016-04-22 0 21 0 37 4 063
2016-04-23 0 8 0 36 4 166
2016-04-24 1 14 0 37 5 654
2016-04-25 2 25 0 65 6 602
2016-04-26 0 16 0 63 5 983
2016-04-27 0 20 0 49 6 244
2016-04-28 1 12 0 54 6 223
2016-04-29 3 29 0 22 4 065
2016-04-30 0 13 0 56 5 502
Mars 2016 35 513 11 88 224 056
Février 2016 35 640 4 96 192 454
Janvier 2016 35 622 8 95 230 232
* 2015 373 6 684 79 100 1 549 803
Décembre 2015 28 499 7 68 140 303
2015-12-01 0 25 0 16 2 350
2015-12-02 0 13 0 16 2 355
2015-12-03 1 32 1 21 3 677
2015-12-04 0 20 0 17 2 064
2015-12-05 0 16 1 21 3 894
2015-12-06 0 13 0 20 5 745
2015-12-07 0 6 0 35 3 625
2015-12-08 1 17 0 32 4 443
2015-12-09 0 4 0 35 7 622
2015-12-10 1 6 0 32 5 400
2015-12-11 0 19 0 35 19 913
2015-12-12 1 21 1 25 3 299
2015-12-13 7 38 0 30 4 377
2015-12-14 0 26 0 27 3 642
2015-12-15 2 29 1 32 5 486
2015-12-16 4 39 0 37 6 111
2015-12-17 0 14 0 18 3 269
2015-12-18 0 17 0 13 2 944
2015-12-19 1 16 0 18 3 387
2015-12-20 0 14 0 17 3 339
2015-12-21 0 2 0 14 2 174
2015-12-22 0 0 1 21 3 147
2015-12-23 2 10 0 14 2 552
2015-12-24 1 11 0 43 2 912
2015-12-25 2 20 0 13 2 346
2015-12-26 0 10 0 12 2 235
2015-12-27 1 11 0 10 6 406
2015-12-28 3 29 1 65 5 360
2015-12-29 0 2 1 53 4 266
2015-12-30 1 12 0 68 5 376
2015-12-31 0 7 0 57 6 587
Novembre 2015 40 724 5 35 146 607
Octobre 2015 32 760 10 84 227 528
Septembre 2015 40 948 13 100 169 012
Août 2015 36 566 12 61 119 954
2015-08-01 2 13 0 18 2 717
2015-08-02 0 7 0 13 2 055
2015-08-03 7 20 2 15 2 199
2015-08-04 1 9 0 40 3 590
2015-08-05 0 13 0 16 2 911
2015-08-06 0 5 0 14 2 574
2015-08-07 0 22 0 17 3 967
2015-08-08 0 14 0 17 3 023
2015-08-09 5 32 1 18 2 992
2015-08-10 2 30 1 17 4 088
2015-08-11 1 16 1 15 2 652
2015-08-12 3 23 0 16 2 544
2015-08-13 0 7 0 14 2 436
2015-08-14 0 8 0 55 4 945
2015-08-15 1 11 0 52 4 116
2015-08-16 0 12 0 13 2 678
2015-08-17 0 2 0 54 3 352
2015-08-18 0 6 0 49 3 473
2015-08-19 0 2 0 29 2 985
2015-08-20 1 13 1 19 3 315
2015-08-21 0 13 0 54 5 973
2015-08-22 0 4 0 13 4 672
2015-08-23 3 21 1 21 3 708
2015-08-24 2 33 2 19 4 048
2015-08-25 1 46 1 25 5 182
2015-08-26 0 17 0 18 5 281
2015-08-27 0 23 0 28 5 761
2015-08-28 1 44 1 17 5 899
2015-08-29 0 37 0 43 5 544
2015-08-30 1 26 1 43 3 953
2015-08-31 5 37 0 61 7 321
Juillet 2015 29 462 7 31 89 666
Juin 2015 24 453 5 30 112 317
Mai 2015 30 390 2 24 73 874
Avril 2015 29 408 4 25 95 371
Mars 2015 38 550 7 37 130 116
Février 2015 15 434 2 24 123 854
Janvier 2015 32 490 5 44 121 201
* 2014 428 7 364 58 58 2 478 164
Décembre 2014 24 360 4 33 191 610
2014-12-01 0 4 0 21 6 641
2014-12-02 2 17 0 26 7 244
2014-12-03 0 9 0 31 7 910
2014-12-04 1 11 0 26 8 107
2014-12-05 1 10 1 23 7 074
2014-12-06 0 6 0 33 8 321
2014-12-07 1 18 0 20 5 632
2014-12-08 1 17 0 24 7 793
2014-12-09 1 19 0 21 5 936
2014-12-10 0 8 0 17 5 092
2014-12-11 0 6 0 20 5 467
2014-12-12 0 6 0 27 7 318
2014-12-13 1 17 0 23 10 029
2014-12-14 1 6 0 24 6 467
2014-12-15 1 12 0 23 8 102
2014-12-16 0 12 0 20 6 013
2014-12-17 0 3 0 22 6 999
2014-12-18 0 5 1 22 6 892
2014-12-19 1 10 0 21 7 099
2014-12-20 1 13 0 19 7 148
2014-12-21 0 2 0 27 4 864
2014-12-22 0 2 0 23 5 428
2014-12-23 2 12 0 20 5 923
2014-12-24 1 11 0 21 4 951
2014-12-25 0 8 1 19 4 762
2014-12-26 6 28 0 17 4 609
2014-12-27 0 21 0 24 6 807
2014-12-28 3 51 1 19 4 079
2014-12-29 0 9 0 17 3 335
2014-12-30 0 3 0 16 2 402
2014-12-31 0 4 0 18 3 166
Novembre 2014 37 572 7 46 525 858
Octobre 2014 45 928 8 58 364 915
Septembre 2014 24 549 8 32 162 413
Août 2014 17 251 4 27 191 624
2014-08-01 0 11 0 17 4 869
2014-08-02 2 8 0 20 4 008
2014-08-03 5 21 0 22 3 930
2014-08-04 0 13 0 27 7 210
2014-08-05 2 12 1 24 7 177
2014-08-06 0 16 0 27 6 701
2014-08-07 0 7 0 25 3 965
2014-08-08 0 13 0 27 6 141
2014-08-09 0 2 0 21 4 733
2014-08-10 1 21 1 23 5 317
2014-08-11 0 0 0 22 5 671
2014-08-12 0 7 0 24 6 599
2014-08-13 0 1 0 15 4 833
2014-08-14 0 1 1 17 5 819
2014-08-15 0 0 0 18 6 630
2014-08-16 1 9 0 21 6 366
2014-08-17 0 11 0 19 6 206
2014-08-18 0 3 0 19 7 614
2014-08-19 1 2 0 25 6 728
2014-08-20 1 6 0 27 8 084
2014-08-21 0 8 0 27 9 580
2014-08-22 1 6 0 25 9 362
2014-08-23 0 7 0 22 6 382
2014-08-24 2 6 0 22 5 960
2014-08-25 0 5 0 25 5 413
2014-08-26 0 9 0 24 6 547
2014-08-27 0 5 0 23 5 741
2014-08-28 0 6 0 21 6 634
2014-08-29 1 9 1 25 5 677
2014-08-30 0 3 0 22 6 121
2014-08-31 0 23 0 23 5 606
Juillet 2014 25 369 3 30 236 312
Juin 2014 29 602 3 32 220 918
Mai 2014 34 842 6 29 157 174
Avril 2014 45 662 1 25 104 486
2014-04-01 3 29 0 14 4 594
2014-04-02 3 19 0 19 3 032
2014-04-03 2 14 0 13 2 744
2014-04-04 0 12 0 14 3 214
2014-04-05 0 5 0 17 3 260
2014-04-06 0 6 0 18 3 097
2014-04-07 1 13 0 20 2 585
2014-04-08 0 11 0 23 3 197
2014-04-09 1 11 0 18 3 647
2014-04-10 0 8 1 17 3 928
2014-04-11 0 9 0 20 2 170
2014-04-12 1 13 0 24 2 967
2014-04-13 0 13 0 21 3 698
2014-04-14 1 8 0 23 3 494
2014-04-15 4 15 0 22 6 980
2014-04-16 1 25 0 19 4 022
2014-04-17 0 17 0 15 6 056
2014-04-18 3 22 0 17 2 815
2014-04-19 0 16 0 17 2 641
2014-04-20 1 11 0 18 4 085
2014-04-21 2 23 0 22 3 723
2014-04-22 0 30 0 22 4 837
2014-04-23 0 37 0 24 3 303
2014-04-24 3 36 0 25 3 341
2014-04-25 8 65 0 18 2 930
2014-04-26 3 46 0 19 2 659
2014-04-27 5 45 0 19 3 483
2014-04-28 0 19 0 19 2 858
2014-04-29 2 46 0 14 2 266
2014-04-30 1 38 0 14 2 860
Mars 2014 32 595 4 26 120 439
Février 2014 24 660 5 28 102 996
Janvier 2014 92 974 5 33 99 419
* 2013 408 8 887 76 89 1 597 727
Décembre 2013 36 785 2 79 132 305
2013-12-01 3 40 0 21 5 124
2013-12-02 0 18 0 23 3 630
2013-12-03 1 22 0 18 2 691
2013-12-04 0 21 0 20 2 917
2013-12-05 2 34 1 74 3 596
2013-12-06 0 14 0 29 4 033
2013-12-07 0 11 0 21 3 141
2013-12-08 2 50 0 20 11 319
2013-12-09 3 47 0 79 15 790
2013-12-10 0 42 0 40 6 438
2013-12-11 0 29 0 23 4 171
2013-12-12 1 32 0 22 3 225
2013-12-13 1 21 0 26 3 543
2013-12-14 0 11 0 23 4 807
2013-12-15 0 20 0 17 3 540
2013-12-16 5 50 0 22 4 009
2013-12-17 2 27 0 23 3 856
2013-12-18 1 53 0 23 4 339
2013-12-19 0 23 0 18 3 138
2013-12-20 0 5 0 16 1 779
2013-12-21 1 26 0 22 3 370
2013-12-22 3 27 0 22 4 250
2013-12-23 0 7 1 16 2 431
2013-12-24 1 16 0 14 2 139
2013-12-25 1 20 0 14 2 448
2013-12-26 0 14 0 17 3 918
2013-12-27 0 31 0 27 3 690
2013-12-28 2 32 0 22 4 302
2013-12-29 2 16 0 19 3 362
2013-12-30 3 13 0 15 3 871
2013-12-31 2 13 0 19 3 438
Novembre 2013 36 751 8 29 141 119
Octobre 2013 37 683 10 26 116 570
Septembre 2013 33 723 15 29 160 779
Août 2013 20 356 4 30 113 960
2013-08-01 0 1 0 17 6 165
2013-08-02 2 10 1 30 3 363
2013-08-03 0 4 0 18 3 801
2013-08-04 1 6 0 15 4 126
2013-08-05 2 13 0 22 3 858
2013-08-06 0 8 0 17 5 385
2013-08-07 0 5 0 17 3 665
2013-08-08 0 10 0 18 3 057
2013-08-09 0 6 0 18 4 374
2013-08-10 1 2 0 16 4 563
2013-08-11 0 9 0 17 4 114
2013-08-12 0 1 0 20 4 489
2013-08-13 1 17 0 19 4 829
2013-08-14 0 7 0 15 2 333
2013-08-15 0 2 0 14 2 977
2013-08-16 0 1 0 15 4 833
2013-08-17 0 2 0 13 3 056
2013-08-18 0 7 0 13 2 784
2013-08-19 1 3 0 12 3 124
2013-08-20 1 8 0 13 2 097
2013-08-21 0 10 0 14 2 180
2013-08-22 0 9 0 15 2 515
2013-08-23 0 13 1 23 3 032
2013-08-24 2 21 0 14 2 563
2013-08-25 1 8 0 14 2 604
2013-08-26 1 13 0 14 1 978
2013-08-27 1 22 0 18 2 519
2013-08-28 0 30 0 14 3 594
2013-08-29 0 26 1 17 2 491
2013-08-30 2 41 1 20 8 436
2013-08-31 4 41 0 22 5 055
Juillet 2013 21 331 2 24 120 164
Juin 2013 40 731 5 34 119 512
Mai 2013 34 881 3 47 157 484
Avril 2013 38 799 8 33 124 279
Mars 2013 40 1 111 9 62 147 762
Février 2013 32 838 5 79 125 299
Janvier 2013 41 898 5 89 138 494
* 2012 446 10 690 67 157 1 274 957
Décembre 2012 57 1 411 4 45 150 137
Novembre 2012 46 1 137 8 25 112 399
Octobre 2012 45 1 068 7 25 80 970
Septembre 2012 37 876 11 38 107 023
Août 2012 30 595 5 41 95 032
2012-08-01 1 10 0 13 3 408
2012-08-02 0 21 0 19 2 532
2012-08-03 0 19 0 15 2 650
2012-08-04 0 3 0 14 1 909
2012-08-05 0 5 0 12 1 913
2012-08-06 1 18 1 15 2 288
2012-08-07 0 13 0 15 2 613
2012-08-08 2 12 0 13 3 743
2012-08-09 1 27 0 14 3 247
2012-08-10 0 14 0 41 3 163
2012-08-11 2 20 1 20 2 655
2012-08-12 0 22 0 13 2 610
2012-08-13 2 54 1 18 3 586
2012-08-14 1 22 0 15 3 230
2012-08-15 1 15 0 15 2 618
2012-08-16 3 23 0 14 3 024
2012-08-17 0 7 0 19 3 643
2012-08-18 0 4 0 14 2 628
2012-08-19 3 17 0 16 3 017
2012-08-20 2 20 0 14 3 296
2012-08-21 0 12 1 16 3 643
2012-08-22 2 14 0 18 3 501
2012-08-23 0 26 0 17 3 497
2012-08-24 0 14 0 15 3 563
2012-08-25 0 23 0 16 3 262
2012-08-26 2 15 0 14 3 447
2012-08-27 1 23 0 13 3 342
2012-08-28 1 4 0 17 2 817
2012-08-29 2 22 0 20 3 476
2012-08-30 2 67 1 18 3 756
2012-08-31 1 29 0 29 2 955
Juillet 2012 24 563 2 157 78 638
Juin 2012 39 984 10 33 88 620
Mai 2012 22 703 5 26 77 701
Avril 2012 33 714 4 33 95 151
Mars 2012 35 977 5 48 160 160
Février 2012 34 704 5 33 117 877
Janvier 2012 44 958 1 30 111 249
* 2011 822 21 877 118 48 1 861 895
Décembre 2011 68 1 315 7 36 141 929
Novembre 2011 94 1 539 4 36 150 015
Octobre 2011 81 1 597 13 41 169 207
Septembre 2011 96 1 991 19 24 158 540
Août 2011 68 1 372 16 48 135 201
Juillet 2011 57 1 156 10 30 112 626
Juin 2011 40 1 214 6 31 149 115
Mai 2011 64 1 997 8 39 181 997
Avril 2011 46 1 637 9 38 176 986
2011-04-01 3 85 0 24 5 196
2011-04-02 2 26 0 25 3 181
2011-04-03 1 47 0 22 3 986
2011-04-04 5 87 0 23 5 162
2011-04-05 3 126 0 26 5 929
2011-04-06 2 86 0 30 5 882
2011-04-07 2 66 0 28 5 722
2011-04-08 1 43 0 24 4 364
2011-04-09 0 20 0 30 5 658
2011-04-10 2 18 0 23 5 927
2011-04-11 1 70 0 29 6 508
2011-04-12 2 92 0 16 4 305
2011-04-13 0 60 0 19 3 888
2011-04-14 3 58 2 36 11 355
2011-04-15 1 48 0 26 8 294
2011-04-16 0 22 0 24 5 495
2011-04-17 0 22 0 27 5 056
2011-04-18 1 49 1 38 7 751
2011-04-19 0 41 0 32 8 124
2011-04-20 0 29 1 28 7 842
2011-04-21 2 75 2 29 7 444
2011-04-22 4 72 1 33 6 852
2011-04-23 2 53 0 26 6 996
2011-04-24 3 39 1 32 6 830
2011-04-25 1 54 0 27 5 518
2011-04-26 2 61 0 30 6 064
2011-04-27 1 30 0 22 4 274
2011-04-28 0 71 0 28 4 955
2011-04-29 0 49 0 28 4 772
2011-04-30 2 38 1 24 3 656
Mars 2011 54 2 388 6 31 211 307
Février 2011 59 2 656 5 46 128 248
Janvier 2011 95 3 015 15 44 146 724
* 2010 615 23 079 70 91 1 409 620
Décembre 2010 54 2 635 5 43 199 984
Novembre 2010 59 2 475 6 49 127 779
Octobre 2010 56 2 811 15 58 134 942
Septembre 2010 53 1 528 8 29 95 249
Août 2010 32 1 287 6 33 89 617
Juillet 2010 34 1 637 5 32 97 290
Juin 2010 46 2 137 3 28 109 648
Mai 2010 50 1 497 6 28 99 050
Avril 2010 45 1 888 3 26 102 219
Mars 2010 53 1 534 2 46 118 201
Février 2010 65 1 574 4 91 117 274
Janvier 2010 68 2 076 7 43 118 367
* 2009 752 28 223 96 159 970 278
Décembre 2009 39 2 001 5 54 122 418
Novembre 2009 59 3 138 6 38 117 432
Octobre 2009 67 3 218 11 18 122 232
Septembre 2009 73 2 730 14 159 92 082
Août 2009 47 1 405 8 15 61 919
Juillet 2009 68 1 737 11 21 67 267
Juin 2009 63 2 759 4 37 72 789
Mai 2009 46 2 166 6 16 66 386
Avril 2009 101 2 850 6 16 73 303
Mars 2009 80 3 538 7 17 83 610
Février 2009 57 1 586 6 16 50 521
Janvier 2009 52 1 095 12 10 40 319
* 2008 334 4 655 56 26 234 055
Décembre 2008 36 663 7 12 28 104
Novembre 2008 51 1 090 9 10 35 948
Octobre 2008 50 609 5 10 26 582
Septembre 2008 40 619 5 10 24 365
Août 2008 28 252 6 9 21 916
Juillet 2008 20 256 5 7 16 733
Juin 2008 17 363 6 26 18 903
Mai 2008 17 180 2 10 13 320
Avril 2008 16 146 3 8 16 063
Mars 2008 18 158 1 9 12 835
Février 2008 19 155 2 9 9 679
Janvier 2008 22 164 5 7 9 607
* 2007 276 2 246 55 9 102 999
Décembre 2007 21 167 5 8 17 081
Novembre 2007 20 168 3 6 8 467
Octobre 2007 21 147 4 5 8 193
Septembre 2007 22 183 4 9 9 896
Août 2007 23 226 2 6 9 096
Juillet 2007 18 127 1 4 10 165
Juin 2007 25 309 2 6 13 196
Mai 2007 30 315 8 7 11 830
Avril 2007 44 428 13 9 13 382
Mars 2007 52 176 13 4 1 693